UPS451 EGSS-EDDK
Flight info
| Callsign | UPS451 |
|---|---|
| Flight time | 0h 48m |
| Altitude | 33000 |
| Route | CLN P44 RATLO M197 REDFA DCT TACHA DCT PAM L620 SONEB/N0443F230 Z841 GETNI T858 KOPAG KOPAG1B |
| Aircraft | B763/H-SDE3FGHIM3RWXY/LB1 |
Departure
| Time | 2026-05-07 01:49 |
|---|---|
| Airport | London Stansted Airport (EGSS) |
Arrival
| Time | 2026-05-07 02:37 |
|---|---|
| Airport | Cologne Bonn Airport (EDDK) |
| Time | Latitude | Longitude | Altitude | Speed | Heading |
|---|---|---|---|---|---|
| 2026-05-07 01:25 | 51.88792 | 0.25045 | 334 ft | 0 kts | 223° |
| 2026-05-07 01:42 | 51.88796 | 0.25051 | 334 ft | 2 kts | 223° |
| 2026-05-07 01:42 | 51.88807 | 0.25067 | 334 ft | 2 kts | 223° |
| 2026-05-07 01:43 | 51.88818 | 0.25084 | 334 ft | 2 kts | 231° |
| 2026-05-07 01:43 | 51.88825 | 0.25105 | 334 ft | 2 kts | 252° |
| 2026-05-07 01:43 | 51.88828 | 0.25129 | 334 ft | 2 kts | 270° |
| 2026-05-07 01:43 | 51.88826 | 0.25152 | 334 ft | 2 kts | 289° |
| 2026-05-07 01:44 | 51.88819 | 0.25174 | 334 ft | 2 kts | 306° |
| 2026-05-07 01:44 | 51.88814 | 0.25183 | 334 ft | 1 kts | 314° |
| 2026-05-07 01:44 | 51.88813 | 0.25184 | 334 ft | 0 kts | 314° |
| 2026-05-07 01:45 | 51.88815 | 0.25181 | 334 ft | 2 kts | 314° |
| 2026-05-07 01:46 | 51.88843 | 0.25133 | 335 ft | 6 kts | 312° |
| 2026-05-07 01:46 | 51.88876 | 0.25074 | 335 ft | 7 kts | 313° |
| 2026-05-07 01:46 | 51.88911 | 0.25012 | 336 ft | 8 kts | 312° |
| 2026-05-07 01:46 | 51.88966 | 0.24930 | 337 ft | 13 kts | 316° |
| 2026-05-07 01:47 | 51.89043 | 0.24823 | 339 ft | 13 kts | 346° |
| 2026-05-07 01:47 | 51.89121 | 0.24880 | 343 ft | 10 kts | 25° |
| 2026-05-07 01:47 | 51.89185 | 0.24835 | 345 ft | 12 kts | 311° |
| 2026-05-07 01:47 | 51.89245 | 0.24701 | 346 ft | 16 kts | 288° |
| 2026-05-07 01:48 | 51.89219 | 0.24558 | 344 ft | 15 kts | 223° |
| 2026-05-07 01:48 | 51.89055 | 0.24314 | 342 ft | 60 kts | 223° |
| 2026-05-07 01:48 | 51.88603 | 0.23635 | 342 ft | 117 kts | 220° |
| 2026-05-07 01:48 | 51.87882 | 0.22556 | 346 ft | 162 kts | 224° |
| 2026-05-07 01:49 | 51.87043 | 0.21182 | 736 ft | 174 kts | 226° |
| 2026-05-07 01:49 | 51.86260 | 0.19780 | 1525 ft | 165 kts | 225° |
| 2026-05-07 01:49 | 51.85292 | 0.18698 | 1900 ft | 177 kts | 195° |
| 2026-05-07 01:49 | 51.84039 | 0.18496 | 2364 ft | 185 kts | 169° |
| 2026-05-07 01:50 | 51.82819 | 0.19220 | 2796 ft | 197 kts | 144° |
| 2026-05-07 01:50 | 51.81796 | 0.20802 | 3205 ft | 214 kts | 124° |
| 2026-05-07 01:50 | 51.81163 | 0.23054 | 3789 ft | 224 kts | 102° |
| 2026-05-07 01:50 | 51.80923 | 0.25589 | 4082 ft | 242 kts | 89° |
| 2026-05-07 01:51 | 51.81036 | 0.28317 | 4008 ft | 243 kts | 78° |
| 2026-05-07 01:51 | 51.81345 | 0.31010 | 4651 ft | 249 kts | 81° |
| 2026-05-07 01:51 | 51.81519 | 0.33845 | 5321 ft | 263 kts | 86° |
| 2026-05-07 01:51 | 51.81632 | 0.36831 | 5982 ft | 273 kts | 85° |
| 2026-05-07 01:52 | 51.81764 | 0.39885 | 6625 ft | 275 kts | 85° |
| 2026-05-07 01:52 | 51.81897 | 0.42978 | 7271 ft | 277 kts | 85° |
| 2026-05-07 01:52 | 51.81950 | 0.44215 | 7530 ft | 278 kts | 85° |
| 2026-05-07 01:52 | 51.81965 | 0.44560 | 7605 ft | 279 kts | 85° |
| 2026-05-07 01:53 | 51.82101 | 0.47702 | 8255 ft | 281 kts | 85° |
| 2026-05-07 01:53 | 51.82240 | 0.50874 | 8896 ft | 284 kts | 85° |
| 2026-05-07 01:53 | 51.82377 | 0.54029 | 9528 ft | 288 kts | 85° |
| 2026-05-07 01:53 | 51.82516 | 0.57284 | 10164 ft | 293 kts | 84° |
| 2026-05-07 01:54 | 51.82660 | 0.60632 | 10824 ft | 305 kts | 84° |
| 2026-05-07 01:54 | 51.82919 | 0.64085 | 11421 ft | 319 kts | 73° |
| 2026-05-07 01:54 | 51.83583 | 0.67598 | 11924 ft | 337 kts | 72° |
| 2026-05-07 01:54 | 51.84238 | 0.71380 | 12455 ft | 356 kts | 73° |
| 2026-05-07 01:55 | 51.84895 | 0.75306 | 12961 ft | 374 kts | 74° |
| 2026-05-07 01:55 | 51.85569 | 0.79477 | 13524 ft | 391 kts | 75° |
| 2026-05-07 01:55 | 51.86249 | 0.83752 | 14479 ft | 396 kts | 75° |
| 2026-05-07 01:55 | 51.86930 | 0.88064 | 15347 ft | 403 kts | 75° |
| 2026-05-07 01:56 | 51.87620 | 0.92474 | 16225 ft | 409 kts | 75° |
| 2026-05-07 01:56 | 51.88316 | 0.96933 | 17070 ft | 414 kts | 75° |
| 2026-05-07 01:56 | 51.89024 | 1.01492 | 17896 ft | 419 kts | 75° |
| 2026-05-07 01:56 | 51.89732 | 1.06066 | 18673 ft | 425 kts | 75° |
| 2026-05-07 01:57 | 51.90451 | 1.10722 | 19483 ft | 430 kts | 75° |
| 2026-05-07 01:57 | 51.91167 | 1.15382 | 20278 ft | 434 kts | 75° |
| 2026-05-07 01:57 | 51.91897 | 1.20139 | 21042 ft | 438 kts | 75° |
| 2026-05-07 01:57 | 51.92633 | 1.24951 | 21766 ft | 443 kts | 75° |
| 2026-05-07 01:58 | 51.93372 | 1.29800 | 22495 ft | 447 kts | 75° |
| 2026-05-07 01:58 | 51.94107 | 1.34634 | 23189 ft | 452 kts | 75° |
| 2026-05-07 01:58 | 51.94858 | 1.39589 | 23864 ft | 456 kts | 75° |
| 2026-05-07 01:58 | 51.95621 | 1.44637 | 24538 ft | 461 kts | 75° |
| 2026-05-07 01:59 | 51.96382 | 1.49695 | 25188 ft | 465 kts | 75° |
| 2026-05-07 01:59 | 51.97149 | 1.54807 | 25838 ft | 470 kts | 75° |
| 2026-05-07 01:59 | 51.97917 | 1.59943 | 26450 ft | 475 kts | 75° |
| 2026-05-07 01:59 | 51.98689 | 1.65118 | 27077 ft | 479 kts | 76° |
| 2026-05-07 02:00 | 51.99483 | 1.70376 | 27683 ft | 483 kts | 75° |
| 2026-05-07 02:00 | 52.00324 | 1.75724 | 28267 ft | 487 kts | 75° |
| 2026-05-07 02:00 | 52.01149 | 1.81027 | 28819 ft | 491 kts | 75° |
| 2026-05-07 02:00 | 52.01985 | 1.86407 | 29352 ft | 495 kts | 75° |
| 2026-05-07 02:01 | 52.02822 | 1.91816 | 29903 ft | 497 kts | 75° |
| 2026-05-07 02:01 | 52.03651 | 1.97193 | 30670 ft | 495 kts | 75° |
| 2026-05-07 02:01 | 52.04478 | 2.02577 | 31340 ft | 493 kts | 75° |
| 2026-05-07 02:01 | 52.05304 | 2.07961 | 31901 ft | 492 kts | 75° |
| 2026-05-07 02:02 | 52.06122 | 2.13320 | 32482 ft | 491 kts | 75° |
| 2026-05-07 02:02 | 52.06943 | 2.18714 | 32973 ft | 491 kts | 75° |
| 2026-05-07 02:02 | 52.07754 | 2.24064 | 33017 ft | 489 kts | 75° |
| 2026-05-07 02:03 | 52.09363 | 2.34727 | 33032 ft | 486 kts | 75° |
| 2026-05-07 02:03 | 52.10960 | 2.45379 | 33036 ft | 488 kts | 75° |
| 2026-05-07 02:04 | 52.12818 | 2.55926 | 33040 ft | 488 kts | 71° |
| 2026-05-07 02:04 | 52.14842 | 2.66513 | 33035 ft | 488 kts | 72° |
| 2026-05-07 02:05 | 52.16837 | 2.77024 | 33033 ft | 488 kts | 72° |
| 2026-05-07 02:05 | 52.18830 | 2.87603 | 33034 ft | 488 kts | 72° |
| 2026-05-07 02:06 | 52.20798 | 2.98116 | 33035 ft | 487 kts | 72° |
| 2026-05-07 02:06 | 52.22767 | 3.08693 | 33031 ft | 488 kts | 72° |
| 2026-05-07 02:07 | 52.24725 | 3.19275 | 33033 ft | 488 kts | 72° |
| 2026-05-07 02:07 | 52.25842 | 3.30169 | 33038 ft | 489 kts | 84° |
| 2026-05-07 02:07 | 52.26149 | 3.35721 | 33026 ft | 490 kts | 84° |
| 2026-05-07 02:08 | 52.26713 | 3.46709 | 33027 ft | 490 kts | 84° |
| 2026-05-07 02:08 | 52.27255 | 3.57782 | 33031 ft | 489 kts | 84° |
| 2026-05-07 02:09 | 52.27778 | 3.68819 | 33030 ft | 489 kts | 85° |
| 2026-05-07 02:09 | 52.28291 | 3.79923 | 33028 ft | 488 kts | 85° |
| 2026-05-07 02:10 | 52.28789 | 3.90949 | 33027 ft | 489 kts | 85° |
| 2026-05-07 02:10 | 52.29277 | 4.01978 | 33025 ft | 489 kts | 85° |
| 2026-05-07 02:11 | 52.29754 | 4.13004 | 33023 ft | 489 kts | 85° |
| 2026-05-07 02:11 | 52.30222 | 4.24063 | 33017 ft | 490 kts | 85° |
| 2026-05-07 02:12 | 52.30683 | 4.35230 | 33018 ft | 489 kts | 85° |
| 2026-05-07 02:12 | 52.31130 | 4.46254 | 33016 ft | 489 kts | 85° |
| 2026-05-07 02:13 | 52.31567 | 4.57352 | 33015 ft | 489 kts | 85° |
| 2026-05-07 02:13 | 52.31987 | 4.68225 | 33007 ft | 490 kts | 86° |
| 2026-05-07 02:14 | 52.32407 | 4.79386 | 33015 ft | 490 kts | 86° |
| 2026-05-07 02:14 | 52.32813 | 4.90478 | 33016 ft | 490 kts | 86° |
| 2026-05-07 02:15 | 52.33196 | 5.01544 | 33008 ft | 490 kts | 88° |
| 2026-05-07 02:15 | 52.32318 | 5.12557 | 33017 ft | 489 kts | 107° |
| 2026-05-07 02:16 | 52.30052 | 5.23056 | 33000 ft | 490 kts | 110° |
| 2026-05-07 02:16 | 52.27752 | 5.33023 | 32999 ft | 489 kts | 111° |
| 2026-05-07 02:17 | 52.24622 | 5.42803 | 33006 ft | 487 kts | 127° |
| 2026-05-07 02:17 | 52.20021 | 5.50992 | 32946 ft | 488 kts | 135° |
| 2026-05-07 02:18 | 52.17466 | 5.54668 | 32194 ft | 491 kts | 144° |
| 2026-05-07 02:18 | 52.14617 | 5.57670 | 31471 ft | 487 kts | 150° |
| 2026-05-07 02:18 | 52.11772 | 5.60554 | 30676 ft | 484 kts | 147° |
| 2026-05-07 02:18 | 52.08988 | 5.63557 | 29837 ft | 476 kts | 147° |
| 2026-05-07 02:19 | 52.06251 | 5.66592 | 29015 ft | 472 kts | 147° |
| 2026-05-07 02:19 | 52.03551 | 5.69643 | 28190 ft | 470 kts | 146° |
| 2026-05-07 02:19 | 52.00888 | 5.72690 | 27375 ft | 465 kts | 146° |
| 2026-05-07 02:19 | 51.98272 | 5.75705 | 26558 ft | 458 kts | 146° |
| 2026-05-07 02:20 | 51.95691 | 5.78689 | 25739 ft | 452 kts | 146° |
| 2026-05-07 02:20 | 51.93149 | 5.81635 | 24935 ft | 447 kts | 146° |
| 2026-05-07 02:20 | 51.90626 | 5.84561 | 24131 ft | 441 kts | 146° |
| 2026-05-07 02:20 | 51.88152 | 5.87428 | 23354 ft | 437 kts | 146° |
| 2026-05-07 02:21 | 51.85711 | 5.90257 | 22584 ft | 432 kts | 145° |
| 2026-05-07 02:21 | 51.83281 | 5.93070 | 21807 ft | 428 kts | 145° |
| 2026-05-07 02:21 | 51.80863 | 5.95866 | 21037 ft | 424 kts | 145° |
| 2026-05-07 02:21 | 51.78463 | 5.98637 | 20255 ft | 419 kts | 145° |
| 2026-05-07 02:22 | 51.76118 | 6.01342 | 19474 ft | 415 kts | 145° |
| 2026-05-07 02:22 | 51.73780 | 6.04035 | 18697 ft | 412 kts | 145° |
| 2026-05-07 02:22 | 51.71459 | 6.06705 | 17956 ft | 407 kts | 145° |
| 2026-05-07 02:22 | 51.69146 | 6.09364 | 17182 ft | 402 kts | 145° |
| 2026-05-07 02:23 | 51.66901 | 6.11940 | 16438 ft | 399 kts | 144° |
| 2026-05-07 02:23 | 51.64656 | 6.14514 | 15687 ft | 393 kts | 144° |
| 2026-05-07 02:23 | 51.62434 | 6.17059 | 14972 ft | 390 kts | 144° |
| 2026-05-07 02:23 | 51.60238 | 6.19569 | 14266 ft | 386 kts | 144° |
| 2026-05-07 02:24 | 51.58062 | 6.22054 | 13589 ft | 382 kts | 144° |
| 2026-05-07 02:24 | 51.55911 | 6.24508 | 12990 ft | 379 kts | 144° |
| 2026-05-07 02:24 | 51.53767 | 6.26950 | 12376 ft | 376 kts | 144° |
| 2026-05-07 02:24 | 51.51639 | 6.29373 | 11753 ft | 373 kts | 144° |
| 2026-05-07 02:25 | 51.49548 | 6.31749 | 11130 ft | 369 kts | 144° |
| 2026-05-07 02:25 | 51.47489 | 6.34087 | 10626 ft | 359 kts | 144° |
| 2026-05-07 02:25 | 51.45492 | 6.36352 | 10320 ft | 341 kts | 144° |
| 2026-05-07 02:25 | 51.43594 | 6.38503 | 9958 ft | 325 kts | 143° |
| 2026-05-07 02:26 | 51.41792 | 6.40543 | 9681 ft | 310 kts | 143° |
| 2026-05-07 02:26 | 51.40060 | 6.42502 | 9439 ft | 295 kts | 143° |
| 2026-05-07 02:26 | 51.38423 | 6.44350 | 9255 ft | 284 kts | 143° |
| 2026-05-07 02:26 | 51.36826 | 6.46153 | 9035 ft | 282 kts | 143° |
| 2026-05-07 02:27 | 51.35164 | 6.48029 | 8141 ft | 296 kts | 143° |
| 2026-05-07 02:27 | 51.33508 | 6.49893 | 7727 ft | 289 kts | 143° |
| 2026-05-07 02:27 | 51.31875 | 6.51731 | 7322 ft | 282 kts | 142° |
| 2026-05-07 02:27 | 51.30299 | 6.53499 | 7195 ft | 268 kts | 143° |
| 2026-05-07 02:28 | 51.28764 | 6.55137 | 7003 ft | 275 kts | 144° |
| 2026-05-07 02:28 | 51.27156 | 6.56846 | 6506 ft | 275 kts | 144° |
| 2026-05-07 02:28 | 51.25568 | 6.58531 | 6103 ft | 269 kts | 144° |
| 2026-05-07 02:28 | 51.24086 | 6.60164 | 6370 ft | 261 kts | 137° |
| 2026-05-07 02:29 | 51.22693 | 6.62223 | 6334 ft | 275 kts | 133° |
| 2026-05-07 02:29 | 51.21318 | 6.64343 | 6329 ft | 272 kts | 134° |
| 2026-05-07 02:29 | 51.19959 | 6.66359 | 6320 ft | 269 kts | 135° |
| 2026-05-07 02:29 | 51.18572 | 6.68381 | 6293 ft | 269 kts | 135° |
| 2026-05-07 02:30 | 51.17164 | 6.70441 | 5943 ft | 275 kts | 135° |
| 2026-05-07 02:30 | 51.15738 | 6.72529 | 5606 ft | 276 kts | 135° |
| 2026-05-07 02:30 | 51.14338 | 6.74586 | 5169 ft | 279 kts | 135° |
| 2026-05-07 02:30 | 51.12921 | 6.76660 | 5036 ft | 266 kts | 135° |
| 2026-05-07 02:31 | 51.11559 | 6.78657 | 4741 ft | 268 kts | 134° |
| 2026-05-07 02:31 | 51.10190 | 6.80665 | 4442 ft | 263 kts | 134° |
| 2026-05-07 02:31 | 51.08838 | 6.82648 | 4111 ft | 263 kts | 134° |
| 2026-05-07 02:31 | 51.07497 | 6.84614 | 3715 ft | 267 kts | 135° |
| 2026-05-07 02:32 | 51.06139 | 6.86603 | 3549 ft | 256 kts | 134° |
| 2026-05-07 02:32 | 51.04852 | 6.88482 | 3364 ft | 246 kts | 134° |
| 2026-05-07 02:32 | 51.03579 | 6.90347 | 3049 ft | 241 kts | 134° |
| 2026-05-07 02:32 | 51.02426 | 6.92026 | 3013 ft | 213 kts | 134° |
| 2026-05-07 02:33 | 51.01391 | 6.93531 | 2954 ft | 188 kts | 133° |
| 2026-05-07 02:33 | 51.00458 | 6.94890 | 3054 ft | 182 kts | 133° |
| 2026-05-07 02:33 | 50.99512 | 6.96280 | 3054 ft | 187 kts | 133° |
| 2026-05-07 02:33 | 50.98583 | 6.97631 | 3061 ft | 174 kts | 133° |
| 2026-05-07 02:34 | 50.97677 | 6.98955 | 2825 ft | 173 kts | 133° |
| 2026-05-07 02:34 | 50.96827 | 7.00190 | 2556 ft | 160 kts | 133° |
| 2026-05-07 02:34 | 50.96025 | 7.01357 | 2335 ft | 155 kts | 133° |
| 2026-05-07 02:34 | 50.95218 | 7.02533 | 2158 ft | 159 kts | 133° |
| 2026-05-07 02:35 | 50.94392 | 7.03734 | 1963 ft | 161 kts | 134° |
| 2026-05-07 02:35 | 50.93568 | 7.04928 | 1749 ft | 159 kts | 134° |
| 2026-05-07 02:35 | 50.92752 | 7.06112 | 1534 ft | 157 kts | 134° |
| 2026-05-07 02:35 | 50.91953 | 7.07269 | 1324 ft | 155 kts | 135° |
| 2026-05-07 02:36 | 50.91161 | 7.08414 | 1115 ft | 154 kts | 135° |
| 2026-05-07 02:36 | 50.90363 | 7.09571 | 906 ft | 153 kts | 136° |
| 2026-05-07 02:36 | 50.89588 | 7.10692 | 696 ft | 151 kts | 136° |
| 2026-05-07 02:36 | 50.88815 | 7.11811 | 492 ft | 150 kts | 137° |
| 2026-05-07 02:37 | 50.88032 | 7.12925 | 272 ft | 150 kts | 137° |
| 2026-05-07 02:37 | 50.87296 | 7.13999 | 250 ft | 128 kts | 140° |
| 2026-05-07 02:37 | 50.86831 | 7.14670 | 265 ft | 65 kts | 137° |
| 2026-05-07 02:37 | 50.86571 | 7.15048 | 276 ft | 30 kts | 137° |
| 2026-05-07 02:38 | 50.86493 | 7.15156 | 278 ft | 11 kts | 143° |
| 2026-05-07 02:38 | 50.86418 | 7.15238 | 280 ft | 14 kts | 150° |
| 2026-05-07 02:38 | 50.86309 | 7.15304 | 282 ft | 18 kts | 167° |
| 2026-05-07 02:38 | 50.86198 | 7.15343 | 285 ft | 15 kts | 167° |
| 2026-05-07 02:39 | 50.86082 | 7.15329 | 285 ft | 18 kts | 215° |
| 2026-05-07 02:39 | 50.86053 | 7.15140 | 282 ft | 20 kts | 300° |
| 2026-05-07 02:39 | 50.86157 | 7.14973 | 282 ft | 22 kts | 317° |
| 2026-05-07 02:39 | 50.86275 | 7.14796 | 279 ft | 24 kts | 320° |
| 2026-05-07 02:40 | 50.86408 | 7.14608 | 273 ft | 17 kts | 318° |
| 2026-05-07 02:40 | 50.86505 | 7.14467 | 268 ft | 20 kts | 317° |
| 2026-05-07 02:40 | 50.86567 | 7.14377 | 265 ft | 13 kts | 317° |
| 2026-05-07 02:40 | 50.86646 | 7.14263 | 261 ft | 17 kts | 317° |
| 2026-05-07 02:41 | 50.86711 | 7.14168 | 259 ft | 13 kts | 318° |
| 2026-05-07 02:41 | 50.86795 | 7.14104 | 258 ft | 14 kts | 324° |
| 2026-05-07 02:41 | 50.86877 | 7.13990 | 254 ft | 17 kts | 317° |
| 2026-05-07 02:41 | 50.86970 | 7.13850 | 253 ft | 19 kts | 315° |
| 2026-05-07 02:42 | 50.87019 | 7.13773 | 251 ft | 20 kts | 318° |
| 2026-05-07 02:42 | 50.87058 | 7.13706 | 250 ft | 8 kts | 279° |
| 2026-05-07 02:42 | 50.87042 | 7.13640 | 248 ft | 8 kts | 229° |
| 2026-05-07 02:42 | 50.87025 | 7.13611 | 248 ft | 6 kts | 228° |
| 2026-05-07 02:43 | 50.87010 | 7.13585 | 249 ft | 0 kts | 227° |